createdAt,value
2018-06-09T00:00:51.249Z,99.99
2018-06-09T00:01:51.272Z,99.99
2018-06-09T00:02:51.294Z,99.99
2018-06-09T00:03:51.313Z,99.99
2018-06-09T00:04:51.337Z,99.99
2018-06-09T00:05:51.362Z,99.99
2018-06-09T00:06:51.383Z,99.99
2018-06-09T00:07:51.402Z,99.99
2018-06-09T00:08:51.427Z,99.99
2018-06-09T00:09:51.450Z,99.99
2018-06-09T00:10:51.471Z,99.99
2018-06-09T00:11:51.495Z,99.99
2018-06-09T00:12:51.519Z,99.99
2018-06-09T00:13:51.544Z,99.99
2018-06-09T00:14:51.567Z,99.99
2018-06-09T00:15:51.585Z,99.99
2018-06-09T00:16:51.616Z,99.99
2018-06-09T00:17:51.637Z,99.99
2018-06-09T00:18:51.657Z,99.99
2018-06-09T00:19:51.681Z,99.99
2018-06-09T00:20:51.700Z,99.99
2018-06-09T00:21:51.725Z,99.99
2018-06-09T00:22:51.766Z,99.99
2018-06-09T00:23:51.768Z,99.99
2018-06-09T00:24:51.799Z,99.99
2018-06-09T00:25:51.818Z,99.99
2018-06-09T00:26:51.841Z,99.99
2018-06-09T00:27:51.859Z,99.99
2018-06-09T00:28:51.886Z,99.99
2018-06-09T00:29:51.904Z,99.99
2018-06-09T00:30:51.927Z,99.99
2018-06-09T00:31:51.953Z,99.99
2018-06-09T00:32:51.976Z,99.99
2018-06-09T00:33:51.994Z,99.99
2018-06-09T00:34:52.020Z,99.99
2018-06-09T00:35:52.046Z,99.99
2018-06-09T00:36:52.066Z,99.99
2018-06-09T00:37:52.084Z,99.99
2018-06-09T00:38:52.109Z,99.99
2018-06-09T00:39:52.134Z,99.99
2018-06-09T00:40:52.165Z,99.99
2018-06-09T00:41:52.180Z,99.99
2018-06-09T00:42:52.202Z,99.99
2018-06-09T00:43:52.226Z,99.99
2018-06-09T00:44:52.260Z,99.99
2018-06-09T00:45:52.264Z,99.99
2018-06-09T00:46:52.293Z,99.99
2018-06-09T00:47:52.314Z,99.99
2018-06-09T00:48:52.337Z,99.99
2018-06-09T00:49:52.359Z,99.99
2018-06-09T00:50:52.380Z,99.99
2018-06-09T00:51:52.403Z,99.99
2018-06-09T00:52:52.423Z,99.99
2018-06-09T00:53:52.444Z,99.99
2018-06-09T00:54:52.468Z,99.99
2018-06-09T00:55:52.495Z,99.99
2018-06-09T00:56:52.520Z,99.99
2018-06-09T00:57:52.538Z,99.99
2018-06-09T00:58:52.569Z,99.99
2018-06-09T00:59:52.579Z,99.99
2018-06-09T01:00:52.600Z,99.99
2018-06-09T01:01:52.624Z,99.99
2018-06-09T01:02:52.654Z,99.99
2018-06-09T01:03:52.668Z,99.99
2018-06-09T01:04:52.694Z,99.99
2018-06-09T01:05:52.715Z,99.99
2018-06-09T01:06:52.740Z,99.99
2018-06-09T01:07:52.765Z,99.99
2018-06-09T01:08:52.789Z,99.99
2018-06-09T01:09:52.807Z,99.99
2018-06-09T01:10:52.836Z,99.99
2018-06-09T01:11:52.853Z,99.99
2018-06-09T01:12:52.872Z,99.99
2018-06-09T01:13:52.897Z,99.99
2018-06-09T01:14:52.919Z,99.99
2018-06-09T01:15:52.939Z,99.99
2018-06-09T01:16:52.966Z,99.99
2018-06-09T01:17:52.990Z,99.99
2018-06-09T01:18:53.008Z,99.99
2018-06-09T01:19:53.027Z,99.99
2018-06-09T01:20:53.049Z,99.99
2018-06-09T01:21:53.073Z,99.99
2018-06-09T01:22:53.095Z,99.99
2018-06-09T01:23:53.118Z,99.99
2018-06-09T01:24:53.142Z,99.99
2018-06-09T01:25:53.164Z,99.99
2018-06-09T01:26:53.182Z,99.99
2018-06-09T01:27:53.206Z,99.99
2018-06-09T01:28:53.228Z,99.99
2018-06-09T01:29:53.253Z,99.99
2018-06-09T01:30:53.277Z,99.99
2018-06-09T01:31:53.295Z,99.99
2018-06-09T01:32:53.320Z,99.99
2018-06-09T01:33:53.344Z,99.99
2018-06-09T01:34:53.365Z,99.99
2018-06-09T01:35:53.383Z,99.99
2018-06-09T01:36:53.411Z,99.99
2018-06-09T01:37:53.426Z,99.99
2018-06-09T01:38:53.453Z,99.99
2018-06-09T01:39:53.473Z,99.99
2018-06-09T01:40:53.497Z,99.99
2018-06-09T01:41:53.515Z,99.99
2018-06-09T01:42:53.538Z,99.99
2018-06-09T01:43:53.561Z,99.99
2018-06-09T01:44:53.589Z,99.99
2018-06-09T01:45:53.604Z,99.99
2018-06-09T01:46:53.623Z,99.99
2018-06-09T01:47:53.647Z,99.99
2018-06-09T03:48:30.570Z,99.99
2018-06-09T03:49:30.555Z,99.99
2018-06-09T03:51:23.476Z,99.99
2018-06-09T03:52:23.485Z,99.99
2018-06-09T03:54:16.430Z,99.99
2018-06-09T03:55:16.423Z,99.99
2018-06-09T03:57:09.343Z,99.99
2018-06-09T03:58:09.355Z,99.99
2018-06-09T04:00:02.296Z,99.99
2018-06-09T04:01:02.287Z,99.99
2018-06-09T04:02:02.305Z,99.99
2018-06-09T04:03:02.325Z,99.99
2018-06-09T04:04:02.341Z,99.99
2018-06-09T04:05:02.362Z,99.99
2018-06-09T04:06:02.381Z,99.99
2018-06-09T04:07:02.400Z,99.99
2018-06-09T04:08:02.417Z,99.99
2018-06-09T04:09:02.438Z,99.99
2018-06-09T04:10:02.456Z,99.99
2018-06-09T04:11:02.476Z,99.99
2018-06-09T04:12:02.500Z,99.99
2018-06-09T04:13:02.520Z,99.99
2018-06-09T04:14:02.534Z,99.99
2018-06-09T04:15:02.558Z,99.99
2018-06-09T04:16:02.576Z,99.99
2018-06-09T04:17:02.607Z,99.99
2018-06-09T04:18:02.620Z,99.99
2018-06-09T04:19:02.641Z,99.99
2018-06-09T04:20:02.662Z,99.99
2018-06-09T04:21:02.684Z,99.99
2018-06-09T04:22:02.703Z,99.99
2018-06-09T04:23:02.723Z,99.99
2018-06-09T04:24:02.745Z,99.99
2018-06-09T04:25:02.767Z,99.99
2018-06-09T04:26:02.786Z,99.99
2018-06-09T04:27:02.803Z,99.99
2018-06-09T04:28:02.829Z,99.99
2018-06-09T04:29:02.857Z,99.99
2018-06-09T04:30:02.867Z,99.99
2018-06-09T04:31:02.889Z,99.99
2018-06-09T04:32:02.911Z,99.99
2018-06-09T04:33:02.933Z,99.99
2018-06-09T04:34:02.954Z,99.99
2018-06-09T04:35:02.971Z,99.99
2018-06-09T04:36:02.993Z,99.99
2018-06-09T04:37:03.017Z,99.99
2018-06-09T04:38:03.037Z,99.99
2018-06-09T04:39:03.058Z,99.99
2018-06-09T04:40:03.126Z,99.99
2018-06-09T04:41:03.101Z,99.99
2018-06-09T04:42:03.123Z,99.99
2018-06-09T04:43:03.142Z,99.99
2018-06-09T04:44:03.165Z,99.99
2018-06-09T04:45:03.185Z,99.99
2018-06-09T04:46:03.230Z,99.99
2018-06-09T04:47:03.228Z,99.99
2018-06-09T04:48:03.254Z,99.99
2018-06-09T04:49:03.272Z,99.99
2018-06-09T04:50:03.298Z,99.99
2018-06-09T04:51:03.316Z,99.99
2018-06-09T04:52:03.339Z,99.99
2018-06-09T04:53:03.362Z,99.99
2018-06-09T04:54:03.382Z,99.99
2018-06-09T04:55:03.404Z,99.99
2018-06-09T04:56:03.424Z,99.99
2018-06-09T04:57:03.447Z,99.99
2018-06-09T04:58:03.465Z,99.99
2018-06-09T04:59:03.494Z,99.99
2018-06-09T05:00:03.520Z,99.99
2018-06-09T05:01:03.533Z,99.99
2018-06-09T05:02:03.557Z,99.99
2018-06-09T05:03:03.577Z,99.99
2018-06-09T05:04:03.603Z,99.99
2018-06-09T05:05:03.624Z,99.99
2018-06-09T05:06:03.646Z,99.99
2018-06-09T05:07:03.667Z,99.99
2018-06-09T05:08:03.692Z,99.99
2018-06-09T05:09:03.707Z,99.99
2018-06-09T05:10:03.737Z,99.99
2018-06-09T05:11:03.752Z,99.99
2018-06-09T05:12:03.779Z,99.99
2018-06-09T05:13:03.877Z,99.99
2018-06-09T05:14:03.820Z,99.99
2018-06-09T05:15:03.839Z,99.99
2018-06-09T05:16:03.865Z,99.99
2018-06-09T05:17:03.889Z,99.99
2018-06-09T05:18:03.912Z,99.99
2018-06-09T05:19:03.934Z,99.99
2018-06-09T05:20:03.954Z,99.99
2018-06-09T05:21:03.982Z,99.99
2018-06-09T05:22:04.000Z,99.99
2018-06-09T05:23:04.024Z,99.99
2018-06-09T05:24:04.042Z,99.99
2018-06-09T05:25:04.065Z,99.99
2018-06-09T05:26:04.093Z,99.99
2018-06-09T05:27:04.117Z,99.99
2018-06-09T05:28:04.151Z,99.99
2018-06-09T05:29:04.158Z,99.99
2018-06-09T05:30:04.186Z,99.99
2018-06-09T05:31:04.207Z,99.99
2018-06-09T05:32:04.230Z,99.99
2018-06-09T05:33:04.248Z,99.99
2018-06-09T05:34:04.271Z,99.99
2018-06-09T05:35:04.303Z,99.99
2018-06-09T05:36:04.317Z,99.99
2018-06-09T05:37:04.340Z,99.99
2018-06-09T05:38:04.362Z,99.99
2018-06-09T05:39:04.388Z,99.99
2018-06-09T05:40:04.422Z,99.99
2018-06-09T05:41:04.433Z,99.99
2018-06-09T05:42:04.464Z,99.99
2018-06-09T05:43:04.480Z,99.99
2018-06-09T05:44:04.504Z,99.99
2018-06-09T05:45:04.538Z,99.99
2018-06-09T05:46:04.558Z,99.99
2018-06-09T05:47:04.579Z,99.99
2018-06-09T05:48:04.606Z,99.99
2018-06-09T05:49:04.630Z,99.99
2018-06-09T05:50:04.656Z,99.99
2018-06-09T05:51:04.679Z,99.99
2018-06-09T05:52:04.704Z,99.99
2018-06-09T05:53:04.730Z,99.99
2018-06-09T05:54:04.753Z,99.99
2018-06-09T05:55:04.779Z,99.99
2018-06-09T05:56:04.811Z,99.99
2018-06-09T05:57:04.830Z,99.99
2018-06-09T05:58:04.859Z,99.99
2018-06-09T05:59:04.884Z,99.99
2018-06-09T06:00:04.909Z,99.99
2018-06-09T06:01:04.938Z,99.99
2018-06-09T06:02:04.961Z,99.99
2018-06-09T06:03:05.021Z,99.99
2018-06-09T06:04:05.010Z,99.99
2018-06-09T06:05:05.035Z,99.99
2018-06-09T06:06:05.066Z,99.99
2018-06-09T06:07:05.094Z,99.99
2018-06-09T06:08:05.116Z,99.99
2018-06-09T06:09:05.146Z,99.99
2018-06-09T06:10:05.170Z,99.99
2018-06-09T06:11:05.194Z,99.99
2018-06-09T06:12:05.222Z,99.99
2018-06-09T06:13:05.248Z,99.99
2018-06-09T06:14:05.272Z,99.99
2018-06-09T06:15:05.301Z,99.99
2018-06-09T06:16:05.326Z,99.99
2018-06-09T06:17:05.352Z,99.99
2018-06-09T06:18:05.379Z,99.99
2018-06-09T06:19:05.404Z,99.99
2018-06-09T06:20:05.436Z,99.99
2018-06-09T06:21:05.458Z,93.88
2018-06-09T06:22:05.487Z,92.85
2018-06-09T06:23:05.513Z,91.06
2018-06-09T06:24:05.540Z,95.33
2018-06-09T06:25:05.564Z,97.96
2018-06-09T06:26:05.591Z,99.99
2018-06-09T06:27:05.621Z,99.99
2018-06-09T06:28:05.648Z,99.99
2018-06-09T06:29:05.681Z,99.99
2018-06-09T06:30:05.698Z,99.99
2018-06-09T06:31:05.725Z,99.99
2018-06-09T06:32:05.761Z,99.99
2018-06-09T06:33:05.782Z,99.99
2018-06-09T06:34:05.808Z,99.99
2018-06-09T06:35:05.838Z,99.99
2018-06-09T06:36:05.864Z,99.99
2018-06-09T06:37:05.890Z,99.99
2018-06-09T06:38:05.918Z,99.99
2018-06-09T06:39:05.943Z,99.99
2018-06-09T06:40:05.975Z,99.99
2018-06-09T06:41:05.997Z,99.99
2018-06-09T06:42:06.029Z,99.99
2018-06-09T06:43:06.050Z,99.99
2018-06-09T06:44:06.085Z,99.99
2018-06-09T06:45:06.186Z,99.99
2018-06-09T06:46:06.129Z,99.99
2018-06-09T06:47:06.157Z,99.99
2018-06-09T06:48:06.184Z,99.99
2018-06-09T06:49:06.209Z,99.99
2018-06-09T06:50:06.237Z,99.99
2018-06-09T06:51:06.263Z,99.99
2018-06-09T06:52:06.289Z,99.99
2018-06-09T06:53:06.325Z,96.45
2018-06-09T06:54:06.343Z,96.79
2018-06-09T06:55:06.374Z,89.94
2018-06-09T06:56:06.402Z,90.23
2018-06-09T06:57:06.421Z,87.55
2018-06-09T06:58:06.455Z,85.71
2018-06-09T06:59:06.477Z,85.32
2018-06-09T07:00:06.502Z,83.56
2018-06-09T07:01:06.536Z,77.82
2018-06-09T07:02:06.583Z,74.55
2018-06-09T07:03:06.586Z,72.86
2018-06-09T07:04:06.620Z,72.82
2018-06-09T07:05:06.641Z,76.83
2018-06-09T07:06:06.665Z,79.90
2018-06-09T07:07:06.699Z,79.35
2018-06-09T07:08:06.722Z,78.97
2018-06-09T07:09:06.751Z,80.62
2018-06-09T07:10:06.782Z,77.90
2018-06-09T07:11:06.812Z,78.73
2018-06-09T07:12:06.839Z,78.73
2018-06-09T07:13:06.869Z,79.84
2018-06-09T07:14:06.893Z,78.71
2018-06-09T07:15:06.924Z,76.03
2018-06-09T07:16:06.950Z,74.32
2018-06-09T07:17:06.975Z,74.45
2018-06-09T07:18:07.014Z,71.86
2018-06-09T07:19:07.035Z,69.91
2018-06-09T07:20:07.061Z,70.40
2018-06-09T07:21:07.090Z,69.87
2018-06-09T07:22:07.160Z,69.68
2018-06-09T07:23:07.145Z,69.03
2018-06-09T07:24:07.177Z,68.26
2018-06-09T07:25:07.201Z,69.71
2018-06-09T07:26:07.231Z,70.33
2018-06-09T07:27:07.264Z,70.82
2018-06-09T07:28:07.299Z,70.23
2018-06-09T07:29:07.317Z,70.82
2018-06-09T07:30:07.348Z,69.84
2018-06-09T07:31:07.378Z,69.52
2018-06-09T07:32:07.406Z,69.71
2018-06-09T07:33:07.442Z,70.10
2018-06-09T07:34:07.464Z,70.78
2018-06-09T07:35:07.504Z,69.91
2018-06-09T07:36:07.530Z,70.30
2018-06-09T07:37:07.556Z,70.30
2018-06-09T07:38:07.583Z,70.98
2018-06-09T07:39:07.612Z,72.77
2018-06-09T07:40:07.642Z,71.60
2018-06-09T07:41:07.670Z,71.80
2018-06-09T07:42:07.710Z,72.19
2018-06-09T07:43:07.729Z,72.05
2018-06-09T07:44:07.766Z,70.68
2018-06-09T07:45:07.790Z,71.76
2018-06-09T07:46:07.822Z,69.20
2018-06-09T07:47:07.853Z,70.07
2018-06-09T07:48:07.878Z,70.26
2018-06-09T07:49:07.908Z,70.56
2018-06-09T07:50:07.942Z,70.72
2018-06-09T07:51:07.967Z,72.66
2018-06-09T07:52:08.001Z,73.11
2018-06-09T07:53:08.024Z,73.44
2018-06-09T07:54:08.065Z,73.93
2018-06-09T07:55:08.087Z,74.26
2018-06-09T07:56:08.121Z,74.35
2018-06-09T07:57:08.148Z,73.96
2018-06-09T07:58:08.172Z,73.28
2018-06-09T07:59:08.203Z,74.06
2018-06-09T08:00:08.233Z,71.53
2018-06-09T08:01:08.269Z,71.62
2018-06-09T08:02:08.292Z,71.92
2018-06-09T08:03:08.322Z,72.31
2018-06-09T08:04:08.355Z,71.72
2018-06-09T08:05:08.385Z,71.27
2018-06-09T08:06:08.421Z,73.18
2018-06-09T08:07:08.442Z,71.59
2018-06-09T08:08:08.477Z,72.49
2018-06-09T08:09:08.503Z,76.64
2018-06-09T08:10:08.533Z,79.94
2018-06-09T08:11:08.562Z,80.91
2018-06-09T08:12:08.590Z,81.49
2018-06-09T08:13:08.622Z,77.64
2018-06-09T08:14:08.651Z,76.28
2018-06-09T08:15:08.686Z,75.15
2018-06-09T08:16:08.712Z,76.45
2018-06-09T08:17:08.735Z,74.71
2018-06-09T08:18:08.768Z,72.76
2018-06-09T08:19:08.799Z,72.08
2018-06-09T08:20:08.831Z,70.58
2018-06-09T08:21:08.856Z,72.33
2018-06-09T08:22:08.883Z,75.64
2018-06-09T08:23:08.916Z,75.35
2018-06-09T08:24:08.948Z,74.90
2018-06-09T08:25:08.975Z,77.87
2018-06-09T08:26:09.001Z,80.81
2018-06-09T08:27:09.031Z,80.48
2018-06-09T08:28:09.063Z,80.52
2018-06-09T08:29:09.152Z,79.94
2018-06-09T08:30:09.115Z,79.68
2018-06-09T08:31:09.145Z,80.76
2018-06-09T08:32:09.177Z,78.91
2018-06-09T08:33:09.206Z,80.17
2018-06-09T08:34:09.234Z,79.97
2018-06-09T08:35:09.266Z,79.88
2018-06-09T08:36:09.376Z,79.20
2018-06-09T08:37:09.320Z,80.21
2018-06-09T08:38:09.350Z,80.79
2018-06-09T08:39:09.381Z,76.35
2018-06-09T08:40:09.413Z,79.14
2018-06-09T08:41:09.435Z,80.89
2018-06-09T08:42:09.464Z,76.42
2018-06-09T08:43:09.492Z,76.32
2018-06-09T08:44:09.520Z,76.61
2018-06-09T08:45:09.548Z,79.88
2018-06-09T08:46:09.579Z,79.39
2018-06-09T08:47:09.609Z,77.55
2018-06-09T08:48:09.636Z,80.07
2018-06-09T08:49:09.697Z,77.70
2018-06-09T08:50:09.717Z,79.94
2018-06-09T08:51:09.717Z,84.85
2018-06-09T08:52:09.748Z,84.11
2018-06-09T08:53:09.776Z,82.17
2018-06-09T08:54:09.804Z,85.52
2018-06-09T08:55:09.835Z,84.35
2018-06-09T08:56:09.862Z,82.50
2018-06-09T08:57:09.887Z,78.91
2018-06-09T08:58:09.922Z,77.48
2018-06-09T08:59:09.946Z,77.10
2018-06-09T09:00:09.971Z,74.57
2018-06-09T09:01:10.002Z,74.82
2018-06-09T09:02:10.025Z,77.10
2018-06-09T09:03:10.109Z,75.15
2018-06-09T09:04:10.095Z,77.25
2018-06-09T09:05:10.120Z,76.42
2018-06-09T09:06:10.138Z,78.36
2018-06-09T09:07:10.163Z,80.21
2018-06-09T09:08:10.195Z,81.63
2018-06-09T09:09:10.221Z,81.63
2018-06-09T09:10:10.249Z,81.48
2018-06-09T09:11:10.276Z,82.54
2018-06-09T09:12:10.305Z,81.63
2018-06-09T09:13:10.333Z,81.57
2018-06-09T09:14:10.358Z,83.56
2018-06-09T09:15:10.387Z,78.66
2018-06-09T09:16:10.414Z,78.99
2018-06-09T09:17:10.443Z,76.55
2018-06-09T09:18:10.471Z,74.22
2018-06-09T09:19:10.496Z,72.66
2018-06-09T09:20:10.525Z,72.56
2018-06-09T09:21:10.552Z,72.96
2018-06-09T09:22:10.578Z,75.71
2018-06-09T09:23:10.609Z,72.76
2018-06-09T09:24:10.639Z,74.80
2018-06-09T09:25:10.659Z,76.45
2018-06-09T09:26:10.690Z,79.04
2018-06-09T09:27:10.717Z,75.35
2018-06-09T09:28:10.751Z,77.78
2018-06-09T09:29:10.769Z,76.12
2018-06-09T09:30:10.800Z,77.78
2018-06-09T09:31:10.831Z,75.74
2018-06-09T09:32:10.871Z,77.29
2018-06-09T09:33:10.885Z,76.61
2018-06-09T09:34:10.905Z,75.54
2018-06-09T09:35:10.937Z,73.02
2018-06-09T09:36:10.965Z,75.87
2018-06-09T09:37:10.997Z,73.46
2018-06-09T09:38:11.029Z,77.64
2018-06-09T09:39:11.048Z,77.29
2018-06-09T09:40:11.074Z,77.06
2018-06-09T09:41:11.100Z,77.20
2018-06-09T09:42:11.128Z,75.93
2018-06-09T09:43:11.153Z,76.90
2018-06-09T09:44:11.257Z,75.54
2018-06-09T09:45:11.213Z,75.15
2018-06-09T09:46:11.236Z,77.29
2018-06-09T09:47:11.265Z,76.35
2018-06-09T09:48:11.291Z,76.51
2018-06-09T09:49:11.317Z,76.65
2018-06-09T09:50:11.345Z,76.42
2018-06-09T09:51:11.377Z,77.68
2018-06-09T09:52:11.415Z,80.30
2018-06-09T09:53:11.437Z,78.36
2018-06-09T09:54:11.468Z,76.32
2018-06-09T09:55:11.480Z,74.57
2018-06-09T09:56:11.516Z,76.42
2018-06-09T09:57:11.543Z,76.61
2018-06-09T09:58:11.566Z,75.15
2018-06-09T09:59:11.594Z,75.87
2018-06-09T10:00:11.619Z,75.15
2018-06-09T10:01:11.654Z,73.63
2018-06-09T10:02:11.673Z,77.14
2018-06-09T10:03:11.699Z,76.45
2018-06-09T10:04:11.729Z,76.45
2018-06-09T10:05:11.757Z,74.38
2018-06-09T10:06:11.785Z,73.60
2018-06-09T10:07:11.811Z,74.99
2018-06-09T10:08:11.838Z,76.55
2018-06-09T10:09:11.865Z,77.23
2018-06-09T10:10:11.888Z,77.43
2018-06-09T10:11:11.919Z,78.50
2018-06-09T10:12:11.944Z,79.47
2018-06-09T10:13:11.974Z,76.35
2018-06-09T10:14:12.006Z,73.11
2018-06-09T10:15:12.029Z,76.71
2018-06-09T10:16:12.055Z,75.12
2018-06-09T10:17:12.083Z,76.34
2018-06-09T10:18:12.115Z,78.09
2018-06-09T10:19:12.139Z,79.12
2018-06-09T10:20:12.165Z,81.45
2018-06-09T10:21:12.195Z,84.89
2018-06-09T10:22:12.219Z,83.86
2018-06-09T10:23:12.250Z,86.78
2018-06-09T10:24:12.272Z,85.17
2018-06-09T10:25:12.302Z,82.93
2018-06-09T10:26:12.330Z,84.10
2018-06-09T10:27:12.356Z,81.38
2018-06-09T10:28:12.384Z,81.28
2018-06-09T10:29:12.417Z,80.50
2018-06-09T10:30:12.434Z,82.45
2018-06-09T10:31:12.462Z,80.79
2018-06-09T10:32:12.491Z,84.97
2018-06-09T10:33:12.524Z,79.18
2018-06-09T10:34:12.549Z,78.50
2018-06-09T10:35:12.571Z,77.04
2018-06-09T10:36:12.601Z,76.94
2018-06-09T10:37:12.642Z,80.64
2018-06-09T10:38:12.655Z,79.38
2018-06-09T10:39:12.685Z,81.22
2018-06-09T10:40:12.709Z,82.87
2018-06-09T10:41:12.736Z,81.71
2018-06-09T10:42:12.781Z,79.47
2018-06-09T10:43:12.796Z,80.87
2018-06-09T10:44:12.818Z,78.92
2018-06-09T10:45:12.886Z,78.01
2018-06-09T10:46:12.880Z,78.15
2018-06-09T10:47:12.908Z,79.51
2018-06-09T10:48:12.934Z,76.88
2018-06-09T10:49:12.955Z,76.30
2018-06-09T10:50:12.980Z,76.30
2018-06-09T10:51:13.008Z,76.30
2018-06-09T10:52:13.038Z,77.66
2018-06-09T10:53:13.068Z,77.37
2018-06-09T10:54:13.093Z,80.09
2018-06-09T10:55:13.119Z,77.53
2018-06-09T10:56:13.144Z,83.95
2018-06-09T10:57:13.173Z,80.02
2018-06-09T10:58:13.198Z,82.06
2018-06-09T10:59:13.229Z,82.06
2018-06-09T11:00:13.256Z,80.85
2018-06-09T11:01:13.281Z,82.70
2018-06-09T11:02:13.312Z,84.25
2018-06-09T11:03:13.336Z,80.99
2018-06-09T11:04:13.365Z,83.61
2018-06-09T11:05:13.398Z,83.75
2018-06-09T11:06:13.420Z,88.13
2018-06-09T11:07:13.448Z,86.77
2018-06-09T11:08:13.473Z,84.57
2018-06-09T11:09:13.501Z,82.92
2018-06-09T11:10:13.532Z,82.18
2018-06-09T11:11:13.555Z,81.10
2018-06-09T11:12:13.582Z,80.72
2018-06-09T11:13:13.613Z,76.53
2018-06-09T11:14:13.634Z,79.30
2018-06-09T11:15:13.663Z,80.82
2018-06-09T11:16:13.694Z,77.50
2018-06-09T11:17:13.723Z,78.81
2018-06-09T11:18:13.805Z,77.60
2018-06-09T11:19:13.822Z,79.20
2018-06-09T11:20:13.802Z,79.30
2018-06-09T11:21:13.834Z,77.73
2018-06-09T11:22:13.873Z,76.47
2018-06-09T11:23:13.885Z,78.03
2018-06-09T11:24:13.914Z,73.02
2018-06-09T11:25:13.943Z,74.00
2018-06-09T11:26:13.967Z,73.67
2018-06-09T11:27:14.065Z,75.75
2018-06-09T11:28:14.053Z,77.70
2018-06-09T11:29:14.050Z,75.26
2018-06-09T11:30:14.074Z,75.75
2018-06-09T11:31:14.115Z,74.29
2018-06-09T11:32:14.144Z,74.00
2018-06-09T11:33:14.158Z,72.34
2018-06-09T11:34:14.200Z,73.51
2018-06-09T11:35:14.250Z,72.83
2018-06-09T11:36:14.266Z,73.90
2018-06-09T11:37:14.271Z,75.95
2018-06-09T11:38:14.297Z,76.24
2018-06-09T11:39:14.419Z,74.58
2018-06-09T11:40:14.374Z,77.89
2018-06-09T11:41:14.427Z,78.32
2018-06-09T11:42:14.464Z,77.83
2018-06-09T11:43:14.519Z,75.59
2018-06-09T11:44:14.462Z,75.40
2018-06-09T11:45:14.549Z,74.46
2018-06-09T11:46:14.521Z,74.52
2018-06-09T11:47:14.582Z,73.71
2018-06-09T11:48:14.603Z,76.14
2018-06-09T11:49:14.643Z,80.04
2018-06-09T11:50:14.648Z,78.81
2018-06-09T11:51:14.682Z,78.48
2018-06-09T11:52:14.692Z,81.24
2018-06-09T11:53:14.714Z,79.39
2018-06-09T11:54:14.763Z,77.25
2018-06-09T11:55:14.789Z,76.41
2018-06-09T11:56:14.801Z,77.09
2018-06-09T11:57:14.858Z,74.85
2018-06-09T11:58:14.860Z,75.69
2018-06-09T11:59:14.901Z,77.00
2018-06-09T12:00:14.909Z,77.68
2018-06-09T12:01:14.968Z,82.26
2018-06-09T12:02:14.987Z,81.87
2018-06-09T12:03:15.000Z,76.21
2018-06-09T12:04:15.028Z,78.52
2018-06-09T12:05:15.056Z,81.15
2018-06-09T12:06:15.150Z,77.50
2018-06-09T12:07:15.121Z,81.20
2018-06-09T12:08:15.165Z,80.29
2018-06-09T12:09:15.157Z,76.40
2018-06-09T12:10:15.202Z,77.31
2018-06-09T12:11:15.223Z,76.34
2018-06-09T12:12:15.293Z,80.07
2018-06-09T12:13:15.279Z,81.05
2018-06-09T12:14:15.335Z,82.22
2018-06-09T12:15:15.361Z,78.75
2018-06-09T12:16:15.358Z,77.87
2018-06-09T12:17:15.431Z,77.29
2018-06-09T12:18:15.417Z,76.61
2018-06-09T12:19:15.438Z,77.19
2018-06-09T12:20:15.467Z,74.17
2018-06-09T12:21:15.543Z,76.21
2018-06-09T12:22:15.529Z,75.34
2018-06-09T12:23:15.600Z,75.76
2018-06-09T12:24:15.595Z,73.43
2018-06-09T12:25:15.630Z,76.25
2018-06-09T12:26:15.632Z,75.76
2018-06-09T12:27:15.671Z,73.62
2018-06-09T12:28:15.711Z,74.98
2018-06-09T12:29:15.756Z,75.31
2018-06-09T12:30:15.746Z,75.70
2018-06-09T12:31:15.775Z,73.36
2018-06-09T12:32:15.802Z,72.68
2018-06-09T12:33:15.876Z,71.80
2018-06-09T12:34:15.854Z,73.17
2018-06-09T12:35:15.903Z,72.09
2018-06-09T12:36:15.978Z,70.79
2018-06-09T12:37:15.971Z,72.00
2018-06-09T12:38:15.969Z,73.29
2018-06-09T12:39:16.018Z,77.29
2018-06-09T12:40:16.033Z,76.47
2018-06-09T12:41:16.092Z,74.33
2018-06-09T12:42:16.109Z,73.10
2018-06-09T12:43:16.121Z,74.27
2018-06-09T12:44:16.141Z,73.29
2018-06-09T12:45:16.174Z,75.63
2018-06-09T12:46:16.217Z,73.78
2018-06-09T12:47:16.222Z,76.02
2018-06-09T12:48:16.265Z,75.82
2018-06-09T12:49:16.286Z,76.70
2018-06-09T12:50:16.309Z,75.63
2018-06-09T12:51:16.338Z,73.39
2018-06-09T12:52:16.377Z,73.49
2018-06-09T12:53:16.394Z,76.21
2018-06-09T12:54:16.421Z,76.41
2018-06-09T12:55:16.451Z,75.92
2018-06-09T12:56:16.478Z,73.12
2018-06-09T12:57:16.504Z,75.56
2018-06-09T12:58:16.530Z,76.34
2018-06-09T12:59:16.571Z,79.88
2018-06-09T13:00:16.590Z,79.97
2018-06-09T13:01:16.620Z,75.59
2018-06-09T13:02:16.644Z,74.04
2018-06-09T13:03:16.674Z,74.72
2018-06-09T13:04:16.708Z,76.51
2018-06-09T13:05:16.735Z,75.57
2018-06-09T13:06:16.756Z,74.79
2018-06-09T13:07:16.789Z,73.13
2018-06-09T13:08:16.819Z,74.83
2018-06-09T13:09:16.837Z,74.24
2018-06-09T13:10:16.866Z,71.61
2018-06-09T13:11:16.895Z,72.39
2018-06-09T13:12:16.925Z,72.88
2018-06-09T13:13:16.951Z,73.95
2018-06-09T13:14:16.976Z,70.43
2018-06-09T13:15:17.004Z,69.85
2018-06-09T13:16:17.035Z,70.63
2018-06-09T13:17:17.063Z,68.77
2018-06-09T13:18:17.096Z,69.36
2018-06-09T13:19:17.118Z,71.61
2018-06-09T13:20:17.166Z,71.18
2018-06-09T13:21:17.186Z,71.57
2018-06-09T13:22:17.205Z,72.25
2018-06-09T13:23:17.233Z,71.34
2018-06-09T13:24:17.262Z,70.47
2018-06-09T13:25:17.286Z,70.37
2018-06-09T13:26:17.318Z,71.44
2018-06-09T13:27:17.349Z,72.61
2018-06-09T13:28:17.378Z,72.38
2018-06-09T13:29:17.400Z,72.64
2018-06-09T13:30:17.438Z,75.46
2018-06-09T13:31:17.458Z,75.03
2018-06-09T13:32:17.489Z,77.43
2018-06-09T13:33:17.521Z,79.96
2018-06-09T13:34:17.541Z,78.79
2018-06-09T13:35:17.579Z,79.38
2018-06-09T13:36:17.598Z,79.71
2018-06-09T13:37:17.627Z,78.28
2018-06-09T13:38:17.649Z,76.04
2018-06-09T13:39:17.679Z,79.32
2018-06-09T13:40:17.710Z,80.19
2018-06-09T13:41:17.783Z,81.75
2018-06-09T13:42:17.767Z,80.77
2018-06-09T13:43:17.788Z,80.09
2018-06-09T13:44:17.817Z,80.09
2018-06-09T13:45:17.847Z,80.68
2018-06-09T13:46:17.873Z,82.04
2018-06-09T13:47:17.900Z,79.32
2018-06-09T13:48:17.925Z,80.54
2018-06-09T13:49:17.956Z,84.72
2018-06-09T13:50:17.980Z,81.22
2018-06-09T13:51:18.008Z,78.69
2018-06-09T13:52:18.037Z,78.44
2018-06-09T13:53:18.062Z,77.01
2018-06-09T13:54:18.108Z,76.63
2018-06-09T13:55:18.117Z,75.89
2018-06-09T13:56:18.150Z,75.40
2018-06-09T13:57:18.176Z,75.69
2018-06-09T13:58:18.208Z,75.73
2018-06-09T13:59:18.232Z,75.14
2018-06-09T14:00:18.261Z,73.39
2018-06-09T14:01:18.288Z,72.90
2018-06-09T14:02:18.314Z,73.19
2018-06-09T14:03:18.338Z,72.84
2018-06-09T14:04:18.368Z,76.80
2018-06-09T14:05:18.405Z,77.58
2018-06-09T14:06:18.422Z,75.86
2018-06-09T14:07:18.449Z,75.76
2018-06-09T14:08:18.478Z,74.69
2018-06-09T14:09:18.508Z,75.86
2018-06-09T14:10:18.539Z,76.25
2018-06-09T14:11:18.560Z,74.01
2018-06-09T14:12:18.591Z,72.74
2018-06-09T14:13:18.650Z,72.35
2018-06-09T14:14:18.645Z,72.68
2018-06-09T14:15:18.677Z,74.01
2018-06-09T14:16:18.700Z,76.39
2018-06-09T14:17:18.727Z,73.27
2018-06-09T14:18:18.754Z,71.67
2018-06-09T14:19:18.788Z,73.17
2018-06-09T14:20:18.813Z,71.86
2018-06-09T14:21:18.851Z,73.43
2018-06-09T14:22:18.868Z,72.58
2018-06-09T14:23:18.899Z,73.62
2018-06-09T14:24:18.932Z,71.28
2018-06-09T14:25:18.950Z,71.57
2018-06-09T14:26:18.981Z,71.37
2018-06-09T14:27:19.006Z,71.54
2018-06-09T14:28:19.033Z,73.19
2018-06-09T14:29:19.067Z,73.29
2018-06-09T14:30:19.089Z,75.04
2018-06-09T14:31:19.117Z,76.25
2018-06-09T14:32:19.146Z,73.33
2018-06-09T14:33:19.177Z,73.68
2018-06-09T14:34:19.199Z,73.97
2018-06-09T14:35:19.234Z,75.14
2018-06-09T14:36:19.256Z,79.39
2018-06-09T14:37:19.285Z,76.96
2018-06-09T14:38:19.314Z,76.51
2018-06-09T14:39:19.339Z,77.58
2018-06-09T14:40:19.367Z,76.02
2018-06-09T14:41:19.396Z,75.53
2018-06-09T14:42:19.429Z,73.19
2018-06-09T14:43:19.451Z,73.00
2018-06-09T14:44:19.478Z,72.25
2018-06-09T14:45:19.512Z,73.03
2018-06-09T14:46:19.535Z,72.80
2018-06-09T14:47:19.564Z,74.30
2018-06-09T14:48:19.600Z,74.01
2018-06-09T14:49:19.618Z,75.27
2018-06-09T14:50:19.645Z,73.95
2018-06-09T14:51:19.677Z,75.47
2018-06-09T14:52:19.706Z,75.02
2018-06-09T14:53:19.728Z,75.51
2018-06-09T14:54:19.757Z,73.50
2018-06-09T14:55:19.791Z,74.24
2018-06-09T14:56:19.818Z,73.36